Work-for-WYDOT.png

Statewide Weather Sensors

Route Weather Station Name Milepost Date / Time Surface Status Surface Temp Precip Intensity Wind Avg Wind Gust Dir Dewpoint Humidity Air Temp Visibility
I 25 Wyo Hill 3.52 May 6, 2026, 05:42 PM     None None 11.8 mph (19.0 km/h) 13.0 mph (21.0 km/h) S 24.8°F (-4.0°C) 79% 30.2°F (-1.0°C) > 1/2 mi (> 0.8 km)
I 25 Whitaker 28.1 May 6, 2026, 05:42 PM     None None 14.3 mph (23.0 km/h) 18.6 mph (30.0 km/h) SW 28.4°F (-2.0°C) 63% 39.2°F (4.0°C) > 1/2 mi (> 0.8 km)
I 25 Bear Creek 46.77 May 6, 2026, 05:42 PM Dry 80.8°F (27.1°C) None None 23.0 mph (37.0 km/h) 32.3 mph (52.0 km/h) W 23.0°F (-5.0°C) 39% 46.4°F (8.0°C) > 1/2 mi (> 0.8 km)
I 25 Bordeaux 70.8 May 6, 2026, 05:42 PM Dry 80.4°F (26.9°C) None None 21.7 mph (35.0 km/h) 28.6 mph (46.0 km/h) SW 19.4°F (-7.0°C) 28% 50.0°F (10.0°C) > 1/2 mi (> 0.8 km)
I 25 Coleman 98.7 May 6, 2026, 05:42 PM Dry 78.3°F (25.7°C) None None 5.6 mph (9.0 km/h) 23.0 mph (37.0 km/h) W 19.4°F (-7.0°C) 25% 53.6°F (12.0°C) > 1/2 mi (> 0.8 km)
I 25 Platte/Converse County Line 119.9 May 6, 2026, 05:42 PM Dry 76.5°F (24.7°C) None None 13.7 mph (22.0 km/h) 18.6 mph (30.0 km/h) W 14.0°F (-10.0°C) 21% 53.6°F (12.0°C) > 1/2 mi (> 0.8 km)
I 25 Deer Creek 164.2 May 6, 2026, 05:42 PM     None None 19.9 mph (32.0 km/h) 28.6 mph (46.0 km/h) SW 15.8°F (-9.0°C) 21% 53.6°F (12.0°C) > 1/2 mi (> 0.8 km)
I 25 Hat Six 181.67 May 6, 2026, 05:42 PM Dry 64.0°F (17.8°C) None 20.5 mph (33.0 km/h) 33.6 mph (54.0 km/h) W 15.8°F (-9.0°C) 22% 53.6°F (12.0°C)  
I 25 F Street Hill 189.51 May 6, 2026, 05:42 PM Dry 66.9°F (19.4°C) None None 23.0 mph (37.0 km/h) 29.2 mph (47.0 km/h) W 5.0°F (-15.0°C) 14% 53.6°F (12.0°C) > 1/2 mi (> 0.8 km)
I 25 Twenty Mile Hill 207.2 May 6, 2026, 05:42 PM Dry 70.9°F (21.6°C) None None 16.8 mph (27.0 km/h) 32.3 mph (52.0 km/h) W 12.2°F (-11.0°C) 21% 51.8°F (11.0°C) > 1/2 mi (> 0.8 km)
I 25 Smokey Gap 228.58 May 6, 2026, 05:42 PM Dry 73.6°F (23.1°C) None None 18.6 mph (30.0 km/h) 27.3 mph (44.0 km/h) W 14.0°F (-10.0°C) 20% 53.6°F (12.0°C) > 1/2 mi (> 0.8 km)
I 25 Tisdale 238.87 May 6, 2026, 05:42 PM Dry 70.0°F (21.1°C) None None 17.4 mph (28.0 km/h) 28.0 mph (45.0 km/h) W 12.2°F (-11.0°C) 18% 53.6°F (12.0°C) > 1/2 mi (> 0.8 km)
I 25 I-25 Divide 267.3 Aug 31, 2025, 09:24 AM                      
I 80 Evanston POE 0.06 May 6, 2026, 05:42 PM Dry 63.1°F (17.3°C) None None 9.3 mph (15.0 km/h) 21.7 mph (35.0 km/h) W 23.0°F (-5.0°C) 32% 51.8°F (11.0°C) > 1/2 mi (> 0.8 km)
I 80 Evanston 4.2 May 6, 2026, 05:42 PM     None None 5.0 mph (8.0 km/h) 9.3 mph (15.0 km/h) NW 28.4°F (-2.0°C) 41% 51.8°F (11.0°C) > 1/2 mi (> 0.8 km)
I 80 Bear River Drive 6.94 May 6, 2026, 05:42 PM Dry 71.4°F (21.9°C) None None 5.0 mph (8.0 km/h) 11.2 mph (18.0 km/h) SW 26.6°F (-3.0°C) 38% 50.0°F (10.0°C) > 1/2 mi (> 0.8 km)
I 80 Painter 10.16 May 6, 2026, 05:42 PM Dry 73.6°F (23.1°C) None None 13.0 mph (21.0 km/h) 18.6 mph (30.0 km/h) S 28.4°F (-2.0°C) 41% 50.0°F (10.0°C) > 1/2 mi (> 0.8 km)
I 80 First Divide 13.86 May 6, 2026, 05:42 PM Dry 82.9°F (28.3°C) None None 14.3 mph (23.0 km/h) 20.5 mph (33.0 km/h) W 26.6°F (-3.0°C) 43% 46.4°F (8.0°C) > 1/2 mi (> 0.8 km)
I 80 US 189 Interchange 17.66 May 6, 2026, 05:42 PM Dry 73.8°F (23.2°C) None None 10.6 mph (17.0 km/h) 16.8 mph (27.0 km/h) SW 28.4°F (-2.0°C) 42% 50.0°F (10.0°C) > 1/2 mi (> 0.8 km)
I 80 Coal Road 20.95 May 6, 2026, 05:42 PM Dry 76.8°F (24.9°C) None None 8.7 mph (14.0 km/h) 17.4 mph (28.0 km/h) S 28.4°F (-2.0°C) 42% 50.0°F (10.0°C) > 1/2 mi (> 0.8 km)
I 80 Leroy 23.35 May 6, 2026, 05:42 PM Dry 75.9°F (24.4°C) None None 14.9 mph (24.0 km/h) 20.5 mph (33.0 km/h) NW 26.6°F (-3.0°C) 36% 51.8°F (11.0°C) > 1/2 mi (> 0.8 km)
I 80 French 27.6 May 6, 2026, 05:42 PM Dry 72.5°F (22.5°C) None None 13.0 mph (21.0 km/h) 22.4 mph (36.0 km/h) W 24.8°F (-4.0°C) 39% 50.0°F (10.0°C) > 1/2 mi (> 0.8 km)
I 80 Church Butte 52.65 May 6, 2026, 05:42 PM Dry 78.3°F (25.7°C) None None 20.5 mph (33.0 km/h) 28.6 mph (46.0 km/h) W 21.2°F (-6.0°C) 30% 51.8°F (11.0°C) > 1/2 mi (> 0.8 km)
I 80 Peru Hill 82.31 May 6, 2026, 05:42 PM Dry 76.1°F (24.5°C) None None 9.9 mph (16.0 km/h) 20.5 mph (33.0 km/h) SW 23.0°F (-5.0°C) 32% 51.8°F (11.0°C) > 1/2 mi (> 0.8 km)
I 80 Green River Tunnel 90.5 May 6, 2026, 05:42 PM Dry 80.6°F (27.0°C) None None 13.7 mph (22.0 km/h) 21.1 mph (34.0 km/h) W 23.0°F (-5.0°C) 32% 51.8°F (11.0°C) > 1/2 mi (> 0.8 km)
I 80 Rock Springs West 97.9 May 6, 2026, 05:42 PM     None None 14.3 mph (23.0 km/h) 21.7 mph (35.0 km/h) W 23.0°F (-5.0°C) 31% 51.8°F (11.0°C) > 1/2 mi (> 0.8 km)
I 80 Baxter Road 111.5 May 6, 2026, 05:42 PM Dry 66.2°F (19.0°C) None None 17.4 mph (28.0 km/h) 23.0 mph (37.0 km/h) NW 24.8°F (-4.0°C) 38% 48.2°F (9.0°C) > 1/2 mi (> 0.8 km)
I 80 Mile Marker 124.5 124.5 May 6, 2026, 05:42 PM Dry 77.7°F (25.4°C) None None 11.2 mph (18.0 km/h) 21.1 mph (34.0 km/h) W 21.2°F (-6.0°C) 33% 50.0°F (10.0°C) > 1/2 mi (> 0.8 km)
I 80 Point of Rocks 129.8 May 6, 2026, 05:42 PM Dry 75.6°F (24.2°C) None None 16.2 mph (26.0 km/h) 26.1 mph (42.0 km/h) SW 23.0°F (-5.0°C) 36% 48.2°F (9.0°C) > 1/2 mi (> 0.8 km)
I 80 Black Butte 134.91 May 6, 2026, 05:42 PM     None Heavy 16.8 mph (27.0 km/h) 26.1 mph (42.0 km/h) W 23.0°F (-5.0°C) 36% 46.4°F (8.0°C) > 1/2 mi (> 0.8 km)
I 80 Bitter Creek 141.83 May 6, 2026, 05:42 PM Dry 59.0°F (15.0°C) None None 23.0 mph (37.0 km/h) 28.6 mph (46.0 km/h) W 23.0°F (-5.0°C) 41% 44.6°F (7.0°C) > 1/2 mi (> 0.8 km)
I 80 Tipton 156.72 May 6, 2026, 05:42 PM Dry 56.3°F (13.5°C) None None 18.6 mph (30.0 km/h) 28.6 mph (46.0 km/h) W 21.2°F (-6.0°C) 39% 44.6°F (7.0°C) > 1/2 mi (> 0.8 km)
I 80 Continental Divide 184.3 May 6, 2026, 05:42 PM Dry 66.4°F (19.1°C) None None 22.4 mph (36.0 km/h) 31.7 mph (51.0 km/h) W 19.4°F (-7.0°C) 36% 44.6°F (7.0°C) > 1/2 mi (> 0.8 km)
I 80 Sinclair 221.7 May 6, 2026, 05:42 PM Dry 56.8°F (13.8°C) None None 21.1 mph (34.0 km/h) 36.0 mph (58.0 km/h) W 23.0°F (-5.0°C) 37% 46.4°F (8.0°C) > 1/2 mi (> 0.8 km)
I 80 Walcott Junction 234.66 May 6, 2026, 05:42 PM Dry 68.7°F (20.4°C) None None 19.9 mph (32.0 km/h) 27.3 mph (44.0 km/h) N 19.4°F (-7.0°C) 35% 46.4°F (8.0°C) > 1/2 mi (> 0.8 km)
I 80 Dana Ridge 244.8 May 6, 2026, 05:42 PM     None None 22.4 mph (36.0 km/h) 31.7 mph (51.0 km/h) W 19.4°F (-7.0°C) 44% 39.2°F (4.0°C) > 1/2 mi (> 0.8 km)
I 80 Mile Marker 249.1 249.1 May 6, 2026, 05:42 PM Dry 65.7°F (18.7°C) None None 24.2 mph (39.0 km/h) 35.4 mph (57.0 km/h) W 19.4°F (-7.0°C) 41% 41.0°F (5.0°C) > 1/2 mi (> 0.8 km)
I 80 Halleck Ridge 252.16 May 6, 2026, 05:42 PM Dry 61.5°F (16.4°C) None None 31.7 mph (51.0 km/h) 44.7 mph (72.0 km/h) W 17.6°F (-8.0°C) 42% 39.2°F (4.0°C) > 1/2 mi (> 0.8 km)
I 80 Elk Mountain 256.17 May 6, 2026, 05:42 PM Dry 57.7°F (14.3°C) None None 21.7 mph (35.0 km/h) 39.1 mph (63.0 km/h) SW 21.2°F (-6.0°C) 44% 41.0°F (5.0°C) > 1/2 mi (> 0.8 km)
I 80 County Road 402 262 May 6, 2026, 05:42 PM Dry 59.5°F (15.3°C) None None 22.4 mph (36.0 km/h) 34.8 mph (56.0 km/h) W 21.2°F (-6.0°C) 47% 39.2°F (4.0°C) > 1/2 mi (> 0.8 km)
I 80 Wagonhound 266.58 May 6, 2026, 05:42 PM Dry 60.3°F (15.7°C) None None 23.0 mph (37.0 km/h) 35.4 mph (57.0 km/h) W 17.6°F (-8.0°C) 42% 39.2°F (4.0°C) > 1/2 mi (> 0.8 km)
I 80 Foote Creek 269.5 May 6, 2026, 05:42 PM Dry 63.9°F (17.7°C) None None 28.0 mph (45.0 km/h) 39.8 mph (64.0 km/h) SW 19.4°F (-7.0°C) 47% 37.4°F (3.0°C) > 1/2 mi (> 0.8 km)
I 80 Arlington 271.8 May 6, 2026, 05:42 PM Dry 56.1°F (13.4°C) None None 23.6 mph (38.0 km/h) 33.6 mph (54.0 km/h) W 19.4°F (-7.0°C) 47% 37.4°F (3.0°C) > 1/2 mi (> 0.8 km)
I 80 Arlington East 273.85 May 6, 2026, 05:42 PM Dry 59.0°F (15.0°C) None None 26.1 mph (42.0 km/h) 37.3 mph (60.0 km/h) W 17.6°F (-8.0°C) 46% 35.6°F (2.0°C) > 1/2 mi (> 0.8 km)
I 80 Cooper Cove 279.36 May 6, 2026, 05:42 PM Dry 53.6°F (12.0°C) None None 18.0 mph (29.0 km/h) 29.8 mph (48.0 km/h) W 21.2°F (-6.0°C) 51% 37.4°F (3.0°C) > 1/2 mi (> 0.8 km)
I 80 Strouss Hill 283.75 May 6, 2026, 05:42 PM     None None 13.7 mph (22.0 km/h) 22.4 mph (36.0 km/h) NW 21.2°F (-6.0°C) 55% 35.6°F (2.0°C) > 1/2 mi (> 0.8 km)
I 80 Quealy Dome 289.5 May 6, 2026, 05:42 PM Dry 64.8°F (18.2°C) None None 6.2 mph (10.0 km/h) 9.3 mph (15.0 km/h) SW 26.6°F (-3.0°C) 79% 32.0°F (0.0°C) > 1/2 mi (> 0.8 km)
I 80 Herrick Lane 297.66 May 6, 2026, 05:42 PM Trace Moisture 61.2°F (16.2°C) None None 5.6 mph (9.0 km/h) 9.3 mph (15.0 km/h) SW 28.4°F (-2.0°C) 92% 30.2°F (-1.0°C) > 1/2 mi (> 0.8 km)
I 80 Summit East 325.8 May 6, 2026, 05:42 PM Dry 53.6°F (12.0°C) None None 16.8 mph (27.0 km/h) 21.7 mph (35.0 km/h) W 17.6°F (-8.0°C) 61% 30.2°F (-1.0°C) > 1/2 mi (> 0.8 km)
I 80 Vedauwoo 329.4 May 6, 2026, 05:42 PM     None None 16.8 mph (27.0 km/h) 21.7 mph (35.0 km/h) W 19.4°F (-7.0°C) 60% 32.0°F (0.0°C) > 1/2 mi (> 0.8 km)
I 80 Lone Tree 333.32 May 6, 2026, 05:42 PM Dry 57.7°F (14.3°C) None 11.8 mph (19.0 km/h) 21.1 mph (34.0 km/h) W 21.2°F (-6.0°C) 60% 33.8°F (1.0°C) > 1/2 mi (> 0.8 km)
I 80 Buford East 336.1 Jun 13, 2025, 03:00 PM                      
I 80 Remount Road 340.5 May 6, 2026, 05:42 PM Dry 64.0°F (17.8°C) None None 9.3 mph (15.0 km/h) 14.3 mph (23.0 km/h) SW 23.0°F (-5.0°C) 58% 35.6°F (2.0°C) > 1/2 mi (> 0.8 km)
I 80 Otto 347.69 May 6, 2026, 05:42 PM Dry 57.6°F (14.2°C) None None 6.2 mph (10.0 km/h) 7.5 mph (12.0 km/h) SW 26.6°F (-3.0°C) 78% 32.0°F (0.0°C) > 1/2 mi (> 0.8 km)
I 80 MP 353 353 May 6, 2026, 05:42 PM Trace Moisture 64.4°F (18.0°C) None N/A N/A S N/A   N/A  
I 80 Cheyenne East 373 May 6, 2026, 05:42 PM Dry 62.8°F (17.1°C) None None 14.9 mph (24.0 km/h) 19.9 mph (32.0 km/h) SW 26.6°F (-3.0°C) 65% 35.6°F (2.0°C) > 1/2 mi (> 0.8 km)
I 90 Montana State Line 0.1 May 6, 2026, 05:42 PM     None None 11.2 mph (18.0 km/h) 16.8 mph (27.0 km/h) NW 17.6°F (-8.0°C) 20% 57.2°F (14.0°C) > 1/2 mi (> 0.8 km)
I 90 Pompey Creek 35.3 May 6, 2026, 05:42 PM Dry 67.8°F (19.9°C) None None 5.0 mph (8.0 km/h) 9.9 mph (16.0 km/h) NW 17.6°F (-8.0°C) 26% 51.8°F (11.0°C) > 1/2 mi (> 0.8 km)
I 90 Sheridan/Johnson County Line 41.33 Jan 29, 2023, 07:04 PM                      
I 90 Piney Creek Interchange 44.7 May 6, 2026, 05:42 PM Dry 74.7°F (23.7°C) None None 4.3 mph (7.0 km/h) 6.2 mph (10.0 km/h) NW 21.2°F (-6.0°C) 29% 51.8°F (11.0°C) > 1/2 mi (> 0.8 km)
I 90 Kearny Divide 45.33 May 6, 2026, 05:42 PM     N/A N/A   N/A   N/A  
I 90 Indian Creek Road 83.3 May 6, 2026, 05:42 PM Dry 82.9°F (28.3°C) None None 7.5 mph (12.0 km/h) 14.3 mph (23.0 km/h) NE 14.0°F (-10.0°C) 22% 51.8°F (11.0°C) > 1/2 mi (> 0.8 km)
I 90 Dead Horse 91.5 May 6, 2026, 05:42 PM Wet 44.1°F (6.7°C) None None 0.0 mph (0.0 km/h) 0.0 mph (0.0 km/h) NW N/A   N/A > 1/2 mi (> 0.8 km)
I 90 Mile Marker 108 108 May 6, 2026, 05:42 PM Dry 85.1°F (29.5°C) None 1.9 mph (3.0 km/h) 5.0 mph (8.0 km/h) NW 14.0°F (-10.0°C) 22% 51.8°F (11.0°C) > 1/2 mi (> 0.8 km)
I 90 Inyan Kara 170.5 May 6, 2026, 05:42 PM Dry 78.4°F (25.8°C) None 17.4 mph (28.0 km/h) 20.5 mph (33.0 km/h) SW 15.8°F (-9.0°C) 22% 53.6°F (12.0°C)  
I 90 Beulah 205.9 May 6, 2026, 05:42 PM Dry 75.4°F (24.1°C) None None 0.0 mph (0.0 km/h) 0.0 mph (0.0 km/h) SW 14.0°F (-10.0°C) 19% 53.6°F (12.0°C) > 1/2 mi (> 0.8 km)
US 14 Ucross 27.83 May 6, 2026, 05:42 PM Dry 77.4°F (25.2°C) None None 3.7 mph (6.0 km/h) 8.1 mph (13.0 km/h) SW 19.4°F (-7.0°C) 25% 55.4°F (13.0°C) > 1/2 mi (> 0.8 km)
US 14 Granite Pass 38.95 May 6, 2026, 05:42 PM Dry 60.3°F (15.7°C) None None 6.2 mph (10.0 km/h) 17.4 mph (28.0 km/h) SW 10.4°F (-12.0°C) 36% 35.6°F (2.0°C) > 1/2 mi (> 0.8 km)
US 14 Sunny Divide 185.89 May 6, 2026, 05:42 PM     None None 14.3 mph (23.0 km/h) 22.4 mph (36.0 km/h) W 12.2°F (-11.0°C) 21% 50.0°F (10.0°C) > 1/2 mi (> 0.8 km)
US 16 Big Horn County Line 44.01 May 6, 2026, 05:42 PM     None None 8.7 mph (14.0 km/h) 16.2 mph (26.0 km/h) NE 10.4°F (-12.0°C) 30% 39.2°F (4.0°C) > 1/2 mi (> 0.8 km)
US 191 Farson 40.45 May 6, 2026, 05:42 PM Dry 80.4°F (26.9°C) None 9.9 mph (16.0 km/h) 20.5 mph (33.0 km/h) W 23.0°F (-5.0°C) 33% 51.8°F (11.0°C)  
US 191 Warren Bridge 119.9 May 6, 2026, 05:42 PM     None None 24.9 mph (40.0 km/h) 36.0 mph (58.0 km/h) W 17.6°F (-8.0°C) 26% 50.0°F (10.0°C) > 1/2 mi (> 0.8 km)
US 20 Natrona 30 May 6, 2026, 05:42 PM     None None 19.3 mph (31.0 km/h) 28.0 mph (45.0 km/h) W 12.2°F (-11.0°C) 20% 51.8°F (11.0°C) > 1/2 mi (> 0.8 km)
US 20 Hiland 57.4 May 6, 2026, 05:43 PM Dry 76.6°F (24.8°C) None None 18.6 mph (30.0 km/h) 26.7 mph (43.0 km/h) W 10.4°F (-12.0°C) 19% 51.8°F (11.0°C) > 1/2 mi (> 0.8 km)
US 20 Van Tassell 57.85 May 6, 2026, 05:42 PM Dry 66.2°F (19.0°C) None None 16.8 mph (27.0 km/h) 28.0 mph (45.0 km/h) W 14.0°F (-10.0°C) 22% 51.8°F (11.0°C) > 1/2 mi (> 0.8 km)
US 26 Wind River Lake 26.05 May 6, 2026, 05:42 PM     None None 18.0 mph (29.0 km/h) 26.1 mph (42.0 km/h) N 17.6°F (-8.0°C) 41% 39.2°F (4.0°C) > 1/2 mi (> 0.8 km)
US 287 Pumpkin Vine 420.4 May 6, 2026, 05:42 PM     None None 9.9 mph (16.0 km/h) 12.4 mph (20.0 km/h) NW 19.4°F (-7.0°C) 66% 28.4°F (-2.0°C) > 1/2 mi (> 0.8 km)
US 30 Sage Junction 34 May 6, 2026, 05:42 PM Dry 78.8°F (26.0°C) None None 17.4 mph (28.0 km/h) 23.6 mph (38.0 km/h) W 24.8°F (-4.0°C) 31% 55.4°F (13.0°C) > 1/2 mi (> 0.8 km)
US 30 Nugget Canyon 39.7 May 6, 2026, 05:42 PM Dry 69.3°F (20.7°C) None None 8.7 mph (14.0 km/h) 28.0 mph (45.0 km/h) N 23.0°F (-5.0°C) 31% 53.6°F (12.0°C) > 1/2 mi (> 0.8 km)
US 85 Gun Barrel 46.8 May 6, 2026, 05:42 PM Dry 69.1°F (20.6°C) None None 13.7 mph (22.0 km/h) 19.9 mph (32.0 km/h) SW 26.6°F (-3.0°C) 50% 44.6°F (7.0°C) > 1/2 mi (> 0.8 km)
US 85 Four Corners 247.2 May 6, 2026, 05:42 PM Dry 61.3°F (16.3°C) None None 12.4 mph (20.0 km/h) 24.9 mph (40.0 km/h) SW 12.2°F (-11.0°C) 27% 42.8°F (6.0°C) > 1/2 mi (> 0.8 km)
WY 120 Meeteetse 61.5 May 6, 2026, 05:42 PM Dry 87.3°F (30.7°C) None None 5.0 mph (8.0 km/h) 9.3 mph (15.0 km/h) NE 23.0°F (-5.0°C) 25% 57.2°F (14.0°C) > 1/2 mi (> 0.8 km)
WY 210 Wildcat Trail 21.52 May 6, 2026, 05:42 PM Dry 76.8°F (24.9°C) None None 13.7 mph (22.0 km/h) 19.3 mph (31.0 km/h) W 21.2°F (-6.0°C) 53% 35.6°F (2.0°C) > 1/2 mi (> 0.8 km)
WY 210 Hynds Lodge Road 24.55 May 6, 2026, 05:42 PM     None None 6.2 mph (10.0 km/h) 16.8 mph (27.0 km/h) W 21.2°F (-6.0°C) 54% 35.6°F (2.0°C) > 1/2 mi (> 0.8 km)
WY 22 Teton Pass 11.2 May 6, 2026, 05:42 PM Dry 66.4°F (19.1°C) None None 1.9 mph (3.0 km/h) 5.6 mph (9.0 km/h) SW 24.8°F (-4.0°C) 51% 42.8°F (6.0°C) > 1/2 mi (> 0.8 km)
WY 220 Pathfinder Hill 80.1 May 6, 2026, 05:42 PM Trace Moisture 69.8°F (21.0°C) None None 20.5 mph (33.0 km/h) 31.1 mph (50.0 km/h) SW 8.6°F (-13.0°C) 18% 50.0°F (10.0°C) > 1/2 mi (> 0.8 km)
WY 230 Skyline 230 113.2 May 6, 2026, 05:42 PM     None 13.0 mph (21.0 km/h) 19.9 mph (32.0 km/h) NW 28.4°F (-2.0°C)   32.0°F (0.0°C) > 1/2 mi (> 0.8 km)
WY 258 Outer Drive 13.77 May 6, 2026, 05:42 PM Dry 72.1°F (22.3°C) None None 17.4 mph (28.0 km/h) 28.6 mph (46.0 km/h) W 14.0°F (-10.0°C) 21% 51.8°F (11.0°C) > 1/2 mi (> 0.8 km)
WY 28 New South Pass 41.4 May 6, 2026, 05:42 PM     None 17.4 mph (28.0 km/h) 28.0 mph (45.0 km/h) W 23.0°F (-5.0°C) 44% 42.8°F (6.0°C)  
WY 28 Lower Red Canyon 59.71 May 6, 2026, 05:42 PM Dry 82.6°F (28.1°C) None None 4.3 mph (7.0 km/h) 10.6 mph (17.0 km/h) S 28.4°F (-2.0°C) 40% 51.8°F (11.0°C) > 1/2 mi (> 0.8 km)
WY 296 Chief Joseph 32.96 May 6, 2026, 05:43 PM     None None 19.3 mph (31.0 km/h) 33.6 mph (54.0 km/h) NW 17.6°F (-8.0°C) 26% 50.0°F (10.0°C) > 1/2 mi (> 0.8 km)
WY 372 Shute Creek 34 May 6, 2026, 05:42 PM     None None 8.1 mph (13.0 km/h) 15.5 mph (25.0 km/h) W 24.8°F (-4.0°C) 33% 53.6°F (12.0°C) > 1/2 mi (> 0.8 km)
WY 387 Pine Tree Junction 131.79 May 6, 2026, 05:42 PM Dry 70.0°F (21.1°C) None None 21.1 mph (34.0 km/h) 27.3 mph (44.0 km/h) W 8.6°F (-13.0°C) 18% 51.8°F (11.0°C) > 1/2 mi (> 0.8 km)
WY 487 Shirley Rim 37 May 6, 2026, 05:42 PM Dry 70.5°F (21.4°C) None None 23.6 mph (38.0 km/h) 29.8 mph (48.0 km/h) SW 17.6°F (-8.0°C) 33% 42.8°F (6.0°C) > 1/2 mi (> 0.8 km)
WY 59 Belle Fourche 87 May 6, 2026, 05:42 PM Dry 81.0°F (27.2°C) None 14.9 mph (24.0 km/h) 23.0 mph (37.0 km/h) SW 10.4°F (-12.0°C) 16% 55.4°F (13.0°C)  
WY 789 Beaver Rim 48.1 May 6, 2026, 05:42 PM     None None 11.2 mph (18.0 km/h) 15.5 mph (25.0 km/h) W 19.4°F (-7.0°C) 31% 48.2°F (9.0°C) > 1/2 mi (> 0.8 km)